Time;durP1;ratioP1;P1;durP2;ratioP2;P2;SDS_P1;SDS_P2;PMS_P1;PMS_P2;Temp;Humidity;BMP_temperature;BMP_pressure;BME280_temperature;BME280_humidity;BME280_pressure;Samples;Min_cycle;Max_cycle;Signal;HPM_P1;HPM_P2
2023/10/18 00:00:28;;;;;;;39.60;35.70;;;;;;;-0.02;100.00;98181.78;106266;1281;25375;-84
2023/10/18 00:03:18;;;;;;;38.70;35.00;;;;;;;-0.04;100.00;98182.91;106561;1284;22586;-81
2023/10/18 00:05:49;;;;;;;40.10;36.20;;;;;;;-0.05;100.00;98183.98;106510;1284;23177;-81
2023/10/18 00:08:17;;;;;;;43.00;39.00;;;;;;;-0.09;100.00;98181.05;106497;1278;22550;-82
2023/10/18 00:10:46;;;;;;;42.60;38.50;;;;;;;-0.12;100.00;98179.72;106476;1284;24263;-82
2023/10/18 00:13:15;;;;;;;38.50;35.00;;;;;;;-0.11;100.00;98174.77;106549;1278;22622;-83
2023/10/18 00:15:42;;;;;;;54.40;49.10;;;;;;;-0.11;100.00;98171.92;106588;1279;24420;-82
2023/10/18 00:18:11;;;;;;;47.80;43.30;;;;;;;-0.09;100.00;98170.21;106878;1278;22575;-83
2023/10/18 00:20:40;;;;;;;52.00;47.40;;;;;;;-0.08;100.00;98169.02;107038;1278;22788;-83
2023/10/18 00:23:08;;;;;;;47.30;43.00;;;;;;;-0.12;100.00;98163.77;106730;1278;25583;-83
2023/10/18 00:25:36;;;;;;;47.90;43.50;;;;;;;-0.15;100.00;98163.52;106768;1275;23449;-83
2023/10/18 00:28:04;;;;;;;45.20;41.20;;;;;;;-0.15;100.00;98155.10;106634;1281;22675;-83
2023/10/18 00:30:32;;;;;;;46.00;41.80;;;;;;;-0.16;100.00;98154.75;106641;1275;22543;-83
2023/10/18 00:33:00;;;;;;;50.80;45.70;;;;;;;-0.17;100.00;98147.80;106709;1282;25365;-83
2023/10/18 00:35:31;;;;;;;51.90;47.10;;;;;;;-0.19;100.00;98150.11;106694;1282;22537;-83
2023/10/18 00:37:59;;;;;;;48.90;44.60;;;;;;;-0.21;100.00;98149.84;106694;1282;22627;-83
2023/10/18 00:43:27;;;;;;;45.60;41.40;;;;;;;-0.21;100.00;98144.09;106693;1278;22540;-83
2023/10/18 00:45:56;;;;;;;51.90;47.30;;;;;;;-0.22;100.00;98140.44;106664;1282;23353;-83
2023/10/18 00:48:29;;;;;;;56.10;50.90;;;;;;;-0.25;100.00;98138.56;106672;1278;24297;-82
2023/10/18 00:50:58;;;;;;;54.30;48.90;;;;;;;-0.27;100.00;98137.03;106793;1282;25465;-82
2023/10/18 00:53:30;;;;;;;49.10;44.70;;;;;;;-0.26;100.00;98128.91;106756;1282;22595;-83
2023/10/18 00:56:00;;;;;;;52.50;47.40;;;;;;;-0.24;100.00;98126.84;106601;1281;23917;-83
2023/10/18 00:58:34;;;;;;;54.80;49.80;;;;;;;-0.22;100.00;98124.52;106831;1282;25604;-83
2023/10/18 01:01:12;;;;;;;57.80;52.70;;;;;;;-0.24;100.00;98128.48;106745;1282;22781;-83
2023/10/18 01:03:46;;;;;;;61.20;55.60;;;;;;;-0.28;100.00;98123.81;106744;1282;25486;-81
2023/10/18 01:06:26;;;;;;;59.70;54.00;;;;;;;-0.30;100.00;98121.87;106805;1275;22563;-82
2023/10/18 01:08:56;;;;;;;58.60;53.30;;;;;;;-0.28;100.00;98125.31;106751;1276;23305;-82
2023/10/18 01:11:28;;;;;;;57.60;52.50;;;;;;;-0.28;100.00;98121.27;106634;1282;24272;-82
2023/10/18 01:13:59;;;;;;;57.10;51.90;;;;;;;-0.26;100.00;98116.57;106649;1282;23356;-82
2023/10/18 01:16:35;;;;;;;61.60;56.10;;;;;;;-0.26;100.00;98121.21;106735;1282;22540;-82
2023/10/18 01:19:08;;;;;;;70.30;63.90;;;;;;;-0.30;100.00;98120.25;106757;1282;22557;-81
2023/10/18 01:21:38;;;;;;;60.20;54.50;;;;;;;-0.34;100.00;98113.45;106827;1275;25519;-81
2023/10/18 01:24:13;;;;;;;57.00;51.80;;;;;;;-0.34;100.00;98113.28;106795;1270;24208;-81
2023/10/18 01:26:42;;;;;;;61.00;55.30;;;;;;;-0.33;100.00;98113.02;106689;1279;25375;-82
2023/10/18 01:29:10;;;;;;;61.10;55.40;;;;;;;-0.33;100.00;98110.05;106747;1276;24364;-82
2023/10/18 01:31:45;;;;;;;64.50;58.90;;;;;;;-0.34;100.00;98108.61;106783;1282;24269;-82
2023/10/18 01:34:14;;;;;;;62.60;56.30;;;;;;;-0.34;100.00;98110.52;106717;1281;23898;-82
2023/10/18 01:36:44;;;;;;;58.70;53.20;;;;;;;-0.35;100.00;98109.80;106821;1282;24259;-82
2023/10/18 01:39:18;;;;;;;60.30;54.80;;;;;;;-0.38;100.00;98103.48;106751;1282;24259;-82
2023/10/18 01:41:49;;;;;;;57.30;52.10;;;;;;;-0.37;100.00;98104.94;106757;1282;24385;-83
2023/10/18 01:44:35;;;;;;;64.50;58.70;;;;;;;-0.36;100.00;98108.09;106777;1278;23272;-83
2023/10/18 01:47:06;;;;;;;64.20;58.50;;;;;;;-0.37;100.00;98106.90;106703;1282;22631;-82
2023/10/18 01:49:46;;;;;;;60.60;55.00;;;;;;;-0.40;100.00;98104.90;106481;1283;23884;-82
2023/10/18 01:52:17;;;;;;;60.10;54.30;;;;;;;-0.42;100.00;98108.02;106655;1282;22547;-82
2023/10/18 01:54:48;;;;;;;61.90;56.00;;;;;;;-0.44;100.00;98104.58;106829;1282;25420;-82
2023/10/18 01:57:17;;;;;;;58.60;53.40;;;;;;;-0.42;100.00;98108.59;106656;1275;23178;-82
2023/10/18 01:59:48;;;;;;;62.10;56.60;;;;;;;-0.43;100.00;98107.58;106894;1275;24379;-82
2023/10/18 02:02:16;;;;;;;66.30;60.50;;;;;;;-0.43;100.00;98105.83;106645;1279;24263;-82
2023/10/18 02:04:45;;;;;;;67.50;61.40;;;;;;;-0.43;100.00;98106.77;106749;1276;25492;-80
2023/10/18 02:07:21;;;;;;;65.80;59.10;;;;;;;-0.42;100.00;98107.89;106762;1282;25297;-81
2023/10/18 02:09:57;;;;;;;63.20;57.20;;;;;;;-0.40;100.00;98111.62;106841;1282;22635;-83
2023/10/18 02:12:27;;;;;;;63.10;57.50;;;;;;;-0.40;100.00;98112.30;106780;1282;22592;-81
2023/10/18 02:14:55;;;;;;;64.00;58.00;;;;;;;-0.42;100.00;98109.65;106672;1282;25387;-82
2023/10/18 02:17:24;;;;;;;66.60;60.70;;;;;;;-0.47;100.00;98108.52;106700;1282;22585;-83
2023/10/18 02:19:53;;;;;;;64.30;58.80;;;;;;;-0.51;100.00;98110.65;106738;1282;22523;-83
2023/10/18 02:22:21;;;;;;;63.20;57.70;;;;;;;-0.50;100.00;98110.34;106732;1282;22610;-82
2023/10/18 02:24:53;;;;;;;61.70;56.20;;;;;;;-0.47;100.00;98113.50;106692;1282;22544;-82
2023/10/18 02:27:23;;;;;;;60.30;54.80;;;;;;;-0.46;100.00;98114.17;106681;1282;24415;-83
2023/10/18 02:29:52;;;;;;;62.50;56.80;;;;;;;-0.47;100.00;98111.54;106509;1283;25377;-82
2023/10/18 02:32:23;;;;;;;70.30;64.00;;;;;;;-0.52;100.00;98105.27;106685;1283;22562;-82
2023/10/18 02:34:52;;;;;;;63.90;58.00;;;;;;;-0.57;100.00;98096.91;106481;1282;22544;-82
2023/10/18 02:37:25;;;;;;;59.90;54.60;;;;;;;-0.59;100.00;98094.05;106575;1276;25669;-84
2023/10/18 02:40:07;;;;;;;62.70;56.70;;;;;;;-0.59;100.00;98093.27;106644;1282;22653;-83
2023/10/18 02:42:37;;;;;;;58.00;52.60;;;;;;;-0.58;100.00;98098.27;106710;1282;22590;-83
2023/10/18 02:45:13;;;;;;;59.90;54.50;;;;;;;-0.62;100.00;98089.89;106846;1282;22725;-83
2023/10/18 02:47:42;;;;;;;61.70;56.10;;;;;;;-0.65;100.00;98098.18;106720;1275;24284;-83
2023/10/18 02:50:14;;;;;;;64.70;58.60;;;;;;;-0.68;100.00;98100.41;106737;1282;23284;-83
2023/10/18 02:52:46;;;;;;;59.60;53.90;;;;;;;-0.68;100.00;98103.59;106704;1274;22778;-83
2023/10/18 02:55:18;;;;;;;60.60;55.10;;;;;;;-0.68;100.00;98103.39;106869;1282;25335;-83
2023/10/18 02:57:47;;;;;;;66.60;60.70;;;;;;;-0.69;100.00;98101.60;106782;1282;22586;-83
2023/10/18 03:00:17;;;;;;;63.60;58.00;;;;;;;-0.69;100.00;98102.13;106772;1275;25502;-83
2023/10/18 03:02:48;;;;;;;64.10;58.10;;;;;;;-0.71;100.00;98103.19;106843;1276;22568;-82
2023/10/18 03:05:20;;;;;;;62.00;56.50;;;;;;;-0.74;100.00;98099.07;106601;1282;22522;-84
2023/10/18 03:07:50;;;;;;;56.80;51.60;;;;;;;-0.76;100.00;98100.10;106758;1282;25384;-82
2023/10/18 03:10:32;;;;;;;57.40;51.90;;;;;;;-0.76;100.00;98098.96;106806;1282;22764;-83
2023/10/18 03:13:11;;;;;;;63.50;57.80;;;;;;;-0.76;100.00;98097.51;106657;1275;23408;-84
2023/10/18 03:15:58;;;;;;;68.10;62.10;;;;;;;-0.76;100.00;98095.38;106881;1282;22711;-83
2023/10/18 03:18:29;;;;;;;68.70;62.30;;;;;;;-0.79;100.00;98097.94;106777;1282;25953;-83
2023/10/18 03:21:05;;;;;;;63.00;57.60;;;;;;;-0.83;100.00;98096.64;107159;1282;22602;-82
2023/10/18 03:23:33;;;;;;;62.20;56.70;;;;;;;-0.87;100.00;98099.27;106859;1282;24247;-82
2023/10/18 03:26:08;;;;;;;59.20;53.70;;;;;;;-0.86;100.00;98098.34;106773;1282;25337;-83
2023/10/18 03:29:15;;;;;;;58.60;53.10;;;;;;;-0.89;100.00;98096.57;106864;1282;22584;-82
2023/10/18 03:31:44;;;;;;;65.90;60.00;;;;;;;-0.89;100.00;98091.01;106836;1282;22696;-83
2023/10/18 03:34:18;;;;;;;74.90;68.10;;;;;;;-0.88;100.00;98084.96;106598;1282;22541;-82
2023/10/18 03:36:51;;;;;;;77.10;69.70;;;;;;;-0.88;100.00;98079.08;106781;1282;24007;-82
2023/10/18 03:39:24;;;;;;;65.60;59.90;;;;;;;-0.92;100.00;98078.27;106734;1282;22560;-82
2023/10/18 03:41:58;;;;;;;61.50;56.20;;;;;;;-0.96;100.00;98075.13;106757;1282;24783;-83
2023/10/18 03:44:27;;;;;;;72.00;65.50;;;;;;;-0.97;100.00;98074.88;106658;1282;22564;-83
2023/10/18 03:47:11;;;;;;;57.50;52.30;;;;;;;-0.97;100.00;98066.42;106554;1282;24395;-83
2023/10/18 03:49:41;;;;;;;56.30;51.30;;;;;;;-0.95;100.00;98063.77;106896;1282;23496;-82
2023/10/18 03:57:29;;;;;;;63.10;57.50;;;;;;;-1.02;100.00;98049.08;106744;1282;25551;-83
2023/10/18 04:00:22;;;;;;;54.60;49.90;;;;;;;-1.01;100.00;98054.30;107285;1280;24215;-83
2023/10/18 04:02:49;;;;;;;51.00;46.60;;;;;;;-1.02;100.00;98052.89;108746;1282;22550;-84
2023/10/18 04:05:30;;;;;;;56.70;51.40;;;;;;;-1.01;100.00;98051.53;107126;1280;22841;-83
2023/10/18 04:07:58;;;;;;;54.60;49.60;;;;;;;-0.98;100.00;98053.68;106741;1282;22553;-82
2023/10/18 04:10:27;;;;;;;52.50;47.80;;;;;;;-0.98;100.00;98049.98;106761;1282;22639;-83
2023/10/18 04:12:55;;;;;;;55.90;50.90;;;;;;;-1.04;100.00;98045.90;106885;1282;22613;-82
2023/10/18 04:15:28;;;;;;;52.80;47.90;;;;;;;-1.06;100.00;98053.50;106800;1282;22615;-83
2023/10/18 04:18:10;;;;;;;52.60;47.60;;;;;;;-1.10;100.00;98056.02;106728;1282;22553;-82
2023/10/18 04:20:46;;;;;;;66.80;60.50;;;;;;;-1.11;100.00;98056.58;106747;1282;22605;-82
2023/10/18 04:23:15;;;;;;;53.40;48.50;;;;;;;-1.11;100.00;98056.16;106889;1282;22636;-83
2023/10/18 04:26:00;;;;;;;54.60;49.90;;;;;;;-1.09;100.00;98055.89;106782;1282;25366;-84
2023/10/18 04:28:37;;;;;;;54.80;50.10;;;;;;;-1.09;100.00;98051.04;106809;1282;24225;-82
2023/10/18 04:31:11;;;;;;;51.80;47.20;;;;;;;-1.08;100.00;98050.67;106728;1282;22568;-83
2023/10/18 04:33:43;;;;;;;50.50;45.80;;;;;;;-1.10;100.00;98052.89;106562;1282;22579;-83
2023/10/18 04:36:14;;;;;;;46.60;42.30;;;;;;;-1.16;100.00;98052.41;106643;1282;22659;-84
2023/10/18 04:38:51;;;;;;;51.50;47.00;;;;;;;-1.11;100.00;98055.95;106739;1282;22586;-83
2023/10/18 04:43:51;;;;;;;49.90;45.30;;;;;;;-1.15;100.00;98052.66;106736;1282;25492;-84
2023/10/18 04:46:26;;;;;;;47.60;42.20;;;;;;;-1.18;100.00;98058.14;106672;1265;24267;-83
2023/10/18 04:51:33;;;;;;;47.90;43.80;;;;;;;-1.19;100.00;98059.98;106890;1282;22560;-84
2023/10/18 04:54:08;;;;;;;51.90;47.10;;;;;;;-1.22;100.00;98051.73;106784;1282;22598;-84
2023/10/18 04:56:38;;;;;;;59.40;53.90;;;;;;;-1.17;100.00;98058.63;106824;1282;25256;-84
2023/10/18 04:59:11;;;;;;;60.60;55.00;;;;;;;-1.20;100.00;98054.88;106720;1282;25383;-83
2023/10/18 05:04:24;;;;;;;59.20;53.80;;;;;;;-1.31;100.00;98038.34;106568;1279;22613;-81
2023/10/18 05:06:56;;;;;;;74.90;68.20;;;;;;;-1.23;100.00;98047.29;106678;1282;25240;-81
2023/10/18 05:12:16;;;;;;;133.00;105.90;;;;;;;-1.22;100.00;98054.36;106998;1277;22708;-85
2023/10/18 05:17:42;;;;;;;88.40;79.90;;;;;;;-1.26;100.00;98050.89;106719;1260;22534;-82
2023/10/18 05:23:05;;;;;;;67.20;61.10;;;;;;;-1.26;100.00;98052.00;106610;1282;24381;-82
2023/10/18 05:25:38;;;;;;;63.20;57.60;;;;;;;-1.21;100.00;98050.64;106553;1282;24241;-81
2023/10/18 05:28:09;;;;;;;64.80;59.10;;;;;;;-1.18;100.00;98052.23;106824;1260;22550;-84
2023/10/18 05:38:52;;;;;;;54.00;49.10;;;;;;;-1.06;100.00;98056.20;106771;1282;22770;-86
2023/10/18 05:41:35;;;;;;;53.20;48.30;;;;;;;-1.01;100.00;98052.06;106682;1276;22765;-86
2023/10/18 05:44:06;;;;;;;53.10;48.30;;;;;;;-0.95;100.00;98053.62;106747;1282;26646;-88
2023/10/18 05:46:35;;;;;;;49.60;45.40;;;;;;;-0.89;100.00;98050.20;107298;1270;22568;-83
2023/10/18 05:49:13;;;;;;;52.90;48.20;;;;;;;-0.85;100.00;98054.37;107359;1282;23285;-85
2023/10/18 05:54:46;;;;;;;50.10;45.30;;;;;;;-0.73;100.00;98064.40;106713;1288;22545;-83
2023/10/18 05:57:19;;;;;;;50.80;46.40;;;;;;;-0.65;100.00;98066.58;107141;1282;22816;-83
2023/10/18 05:59:48;;;;;;;47.10;42.60;;;;;;;-0.53;100.00;98066.00;107214;1282;22541;-83
2023/10/18 06:02:23;;;;;;;49.90;45.40;;;;;;;-0.40;100.00;98064.60;107168;1282;22653;-83
2023/10/18 06:04:55;;;;;;;65.50;60.30;;;;;;;-0.29;100.00;98070.04;107149;1282;22649;-83
2023/10/18 06:07:26;;;;;;;57.00;52.00;;;;;;;-0.21;100.00;98065.90;107132;1282;24362;-84
2023/10/18 06:09:57;;;;;;;48.50;44.00;;;;;;;-0.13;100.00;98064.04;107018;1282;25257;-83
2023/10/18 06:12:30;;;;;;;48.30;44.00;;;;;;;-0.02;100.00;98057.45;107081;1282;22530;-83
2023/10/18 06:15:10;;;;;;;48.50;44.10;;;;;;;0.13;100.00;98061.63;106944;1282;24253;-84
2023/10/18 06:17:46;;;;;;;49.00;44.40;;;;;;;0.28;100.00;98064.38;106808;1282;22597;-84
2023/10/18 06:20:27;;;;;;;50.10;45.40;;;;;;;0.40;100.00;98068.98;106615;1282;26740;-83
2023/10/18 06:23:08;;;;;;;56.20;51.20;;;;;;;0.55;100.00;98066.25;106753;1282;25355;-84
2023/10/18 06:25:38;;;;;;;55.10;50.20;;;;;;;0.69;100.00;98065.81;106533;1282;22539;-83
2023/10/18 06:28:07;;;;;;;51.00;46.40;;;;;;;0.79;100.00;98066.21;106541;1282;25240;-84
2023/10/18 06:30:42;;;;;;;54.50;49.60;;;;;;;0.90;100.00;98064.38;106730;1282;22568;-83
2023/10/18 06:33:12;;;;;;;53.00;48.40;;;;;;;1.06;100.00;98058.13;106749;1282;22705;-85
2023/10/18 06:35:53;;;;;;;59.40;54.20;;;;;;;1.22;100.00;98060.92;106858;1282;22534;-84
2023/10/18 06:38:23;;;;;;;67.00;60.70;;;;;;;1.41;100.00;98061.19;106817;1282;24283;-85
2023/10/18 06:40:53;;;;;;;106.00;80.90;;;;;;;1.55;100.00;98063.27;106759;1282;22857;-84
2023/10/18 06:43:33;;;;;;;99.80;69.60;;;;;;;1.66;100.00;98066.73;106765;1282;25259;-84
2023/10/18 06:46:04;;;;;;;77.00;68.40;;;;;;;1.75;100.00;98069.85;106825;1282;25431;-85
2023/10/18 06:48:33;;;;;;;77.40;68.10;;;;;;;1.83;100.00;98069.54;106826;1282;25492;-84
2023/10/18 06:51:06;;;;;;;105.30;78.00;;;;;;;1.93;100.00;98064.88;106763;1282;22642;-85
2023/10/18 06:53:38;;;;;;;113.70;87.10;;;;;;;2.07;100.00;98064.08;106896;1282;22687;-84
2023/10/18 06:56:19;;;;;;;106.40;85.20;;;;;;;2.22;100.00;98058.73;107611;1279;22557;-85
2023/10/18 06:58:53;;;;;;;94.90;83.70;;;;;;;2.41;100.00;98061.28;108185;1282;22564;-85
2023/10/18 07:01:21;;;;;;;112.20;88.90;;;;;;;2.53;100.00;98058.70;108837;1282;22560;-87
2023/10/18 07:03:50;;;;;;;112.60;84.00;;;;;;;2.63;100.00;98055.87;107164;1282;24205;-86
2023/10/18 07:06:18;;;;;;;104.80;83.60;;;;;;;2.75;100.00;98054.23;106907;1282;25249;-85
2023/10/18 07:08:49;;;;;;;94.50;83.40;;;;;;;2.93;100.00;98056.41;106880;1282;22569;-86
2023/10/18 07:11:19;;;;;;;92.50;82.00;;;;;;;3.10;100.00;98057.06;106861;1282;24426;-86
2023/10/18 07:14:04;;;;;;;111.50;85.20;;;;;;;3.29;100.00;98053.62;106682;1282;22558;-84
2023/10/18 07:21:49;;;;;;;51.30;46.00;;;;;;;3.79;100.00;98062.30;106692;1282;22540;-85
2023/10/18 07:24:18;;;;;;;56.80;51.00;;;;;;;3.98;100.00;98057.85;106680;1282;22645;-85
2023/10/18 07:26:46;;;;;;;54.40;48.80;;;;;;;4.15;100.00;98050.81;106757;1282;25568;-85
2023/10/18 07:29:15;;;;;;;49.20;43.90;;;;;;;4.30;100.00;98055.75;106782;1282;22652;-85
2023/10/18 07:31:46;;;;;;;42.60;38.50;;;;;;;4.44;100.00;98056.17;106725;1282;22559;-85
2023/10/18 07:34:17;;;;;;;38.70;34.80;;;;;;;4.57;100.00;98053.71;106717;1282;25345;-84
2023/10/18 07:36:46;;;;;;;34.50;31.00;;;;;;;4.69;100.00;98047.23;106703;1282;23409;-84
2023/10/18 07:39:16;;;;;;;29.80;26.90;;;;;;;4.81;100.00;98044.59;106810;1282;22653;-84
2023/10/18 07:41:44;;;;;;;29.50;26.50;;;;;;;4.93;100.00;98039.55;106986;1282;22681;-84
2023/10/18 07:44:12;;;;;;;33.00;29.70;;;;;;;5.09;100.00;98036.10;106948;1282;22726;-83
2023/10/18 07:46:40;;;;;;;32.80;29.50;;;;;;;5.20;100.00;98036.05;106626;1282;22558;-85
2023/10/18 07:49:17;;;;;;;32.60;29.00;;;;;;;5.29;100.00;98037.59;106878;1282;22551;-84
2023/10/18 07:51:48;;;;;;;33.10;29.90;;;;;;;5.37;100.00;98038.32;106889;1262;23892;-86
2023/10/18 07:54:21;;;;;;;30.20;27.20;;;;;;;5.46;100.00;98034.08;106753;1282;22531;-84
2023/10/18 07:56:49;;;;;;;32.40;29.00;;;;;;;5.61;100.00;98031.07;106858;1282;22606;-85
2023/10/18 07:59:27;;;;;;;33.80;30.20;;;;;;;5.73;100.00;98030.09;106838;1282;22530;-83
2023/10/18 08:04:47;;;;;;;39.20;32.50;;;;;;;5.97;100.00;98024.34;106784;1282;24207;-84
2023/10/18 08:07:15;;;;;;;36.80;33.30;;;;;;;6.06;100.00;98025.52;106745;1282;22566;-84
2023/10/18 08:09:43;;;;;;;37.60;33.80;;;;;;;6.18;100.00;98026.77;106565;1282;25362;-84
2023/10/18 08:14:56;;;;;;;30.60;27.30;;;;;;;6.43;100.00;98024.85;106804;1282;22549;-84
2023/10/18 08:17:30;;;;;;;29.50;26.50;;;;;;;6.53;100.00;98024.20;106902;1282;22521;-84
2023/10/18 08:22:50;;;;;;;30.50;27.50;;;;;;;6.77;100.00;98019.84;106926;1282;23275;-83
2023/10/18 08:25:22;;;;;;;29.50;26.40;;;;;;;6.90;100.00;98020.77;106692;1282;22599;-83
2023/10/18 08:27:51;;;;;;;26.10;23.50;;;;;;;7.00;100.00;98021.39;106879;1282;22534;-85
2023/10/18 08:33:07;;;;;;;26.60;23.70;;;;;;;7.18;100.00;98009.27;106851;1282;22681;-83
2023/10/18 08:35:37;;;;;;;23.40;20.90;;;;;;;7.30;100.00;98011.31;106891;1282;22575;-83
2023/10/18 08:38:06;;;;;;;20.00;18.00;;;;;;;7.44;100.00;98011.67;107129;1282;22575;-84
2023/10/18 08:40:37;;;;;;;21.10;18.80;;;;;;;7.55;100.00;98009.55;108208;1282;24201;-83
2023/10/18 08:43:23;;;;;;;24.00;21.50;;;;;;;7.65;100.00;98006.80;107291;1266;22657;-84
2023/10/18 08:45:57;;;;;;;24.20;21.80;;;;;;;7.79;100.00;98010.59;106861;1282;23887;-83
2023/10/18 08:48:28;;;;;;;24.60;21.70;;;;;;;7.92;100.00;98006.15;106792;1282;25275;-84
2023/10/18 08:50:59;;;;;;;23.20;20.80;;;;;;;8.04;100.00;98008.45;106770;1282;25549;-82
2023/10/18 08:53:31;;;;;;;20.30;18.10;;;;;;;8.13;100.00;98007.95;106831;1282;24240;-83
2023/10/18 08:55:59;;;;;;;18.90;17.00;;;;;;;8.12;100.00;98005.98;106834;1282;23386;-83
2023/10/18 08:58:29;;;;;;;21.20;19.20;;;;;;;8.19;100.00;98005.81;106844;1282;24228;-83
2023/10/18 09:03:29;;;;;;;18.30;16.50;;;;;;;8.39;100.00;98002.24;106861;1282;25301;-83
2023/10/18 09:06:05;;;;;;;18.90;17.00;;;;;;;8.49;100.00;98002.48;106791;1282;22611;-83
2023/10/18 09:08:39;;;;;;;20.40;18.00;;;;;;;8.58;100.00;98000.89;106766;1282;22547;-83
2023/10/18 09:11:23;;;;;;;22.20;19.90;;;;;;;8.63;100.00;98001.50;106630;1282;23238;-83
2023/10/18 09:16:40;;;;;;;22.80;18.20;;;;;;;8.76;100.00;97992.92;106842;1282;22597;-84
2023/10/18 09:19:09;;;;;;;15.70;14.10;;;;;;;8.85;100.00;97989.23;106903;1282;25495;-83
2023/10/18 09:22:01;;;;;;;17.50;15.40;;;;;;;8.98;100.00;97983.52;106862;1282;22597;-84
2023/10/18 09:24:31;;;;;;;20.80;17.30;;;;;;;9.19;100.00;97987.25;106842;1282;25376;-82
2023/10/18 09:27:00;;;;;;;17.30;15.00;;;;;;;9.30;99.91;97993.30;106672;1282;24520;-82
2023/10/18 09:29:29;;;;;;;13.80;10.80;;;;;;;9.39;99.57;97992.23;106769;1282;22570;-82
2023/10/18 09:32:32;;;;;;;13.00;9.60;;;;;;;9.46;98.21;97993.69;106918;1282;25485;-83
2023/10/18 09:35:07;;;;;;;11.30;10.10;;;;;;;9.46;93.24;97992.46;106804;1282;22537;-82
2023/10/18 09:37:35;;;;;;;9.90;8.80;;;;;;;9.40;92.65;97995.00;106751;1282;22557;-82
2023/10/18 09:40:04;;;;;;;13.20;9.00;;;;;;;9.42;93.56;97992.51;106735;1282;22556;-83
2023/10/18 09:42:32;;;;;;;10.50;9.30;;;;;;;9.43;92.58;97981.36;106797;1282;22604;-83
2023/10/18 09:45:00;;;;;;;12.30;11.00;;;;;;;9.51;94.96;97979.54;107009;1282;25348;-82
2023/10/18 09:47:28;;;;;;;12.90;9.50;;;;;;;9.66;94.75;97979.45;106562;1282;211442;-83
2023/10/18 09:49:56;;;;;;;10.10;9.00;;;;;;;9.78;92.36;97984.98;106815;1282;22549;-82
2023/10/18 09:52:30;;;;;;;11.00;9.80;;;;;;;9.88;93.67;97988.27;106840;1282;25475;-83
2023/10/18 09:55:01;;;;;;;13.40;10.40;;;;;;;9.97;93.39;97986.84;106848;1282;22538;-83
2023/10/18 09:57:35;;;;;;;13.30;10.40;;;;;;;10.00;92.26;97985.02;106925;1282;22499;-83
2023/10/18 10:00:13;;;;;;;7.20;5.40;;;;;;;10.05;90.17;97983.55;106555;1282;22549;-81
2023/10/18 10:02:52;;;;;;;8.50;6.20;;;;;;;10.07;90.26;97975.77;106764;1282;22738;-81
2023/10/18 10:05:27;;;;;;;9.20;7.30;;;;;;;10.05;87.74;97977.36;106666;1282;22588;-81
2023/10/18 10:08:01;;;;;;;9.60;6.70;;;;;;;10.14;88.21;97975.52;106693;1282;22534;-82
2023/10/18 10:10:45;;;;;;;13.70;7.90;;;;;;;10.20;84.37;97976.48;106781;1282;25493;-82
2023/10/18 10:13:18;;;;;;;10.60;9.10;;;;;;;10.19;81.15;97978.86;106685;1282;23885;-82
2023/10/18 10:15:57;;;;;;;11.70;8.30;;;;;;;10.18;81.39;97983.08;106517;1282;22535;-82
2023/10/18 10:18:30;;;;;;;12.50;9.10;;;;;;;10.27;83.15;97977.68;106510;1282;24342;-84
2023/10/18 10:21:05;;;;;;;9.90;8.90;;;;;;;10.34;78.45;97986.08;106741;1282;24218;-83
2023/10/18 10:23:38;;;;;;;16.70;12.50;;;;;;;10.27;73.53;97984.79;106814;1282;22576;-83
2023/10/18 10:26:11;;;;;;;14.80;12.30;;;;;;;10.26;77.70;97977.09;107080;1282;22592;-83
2023/10/18 10:31:57;;;;;;;12.10;10.30;;;;;;;10.34;74.82;97974.71;108728;1282;25984;-81
2023/10/18 10:34:28;;;;;;;10.30;8.60;;;;;;;10.41;75.35;97971.96;109195;1282;24340;-83
2023/10/18 10:37:28;;;;;;;10.40;9.00;;;;;;;10.53;76.00;97969.16;106895;1282;24228;-81
2023/10/18 10:42:49;;;;;;;11.70;9.10;;;;;;;10.78;74.86;97967.80;106885;1282;23926;-82
2023/10/18 10:45:38;;;;;;;10.10;9.00;;;;;;;10.86;74.34;97964.15;106785;1282;22544;-82
2023/10/18 10:48:16;;;;;;;13.10;9.30;;;;;;;10.93;73.90;97955.87;106770;1282;22630;-84
2023/10/18 10:50:56;;;;;;;13.00;8.90;;;;;;;11.00;70.39;97960.11;106799;1282;24415;-83
2023/10/18 10:53:43;;;;;;;10.10;7.80;;;;;;;10.99;69.08;97952.73;106631;1282;24274;-84
2023/10/18 10:56:18;;;;;;;11.70;8.80;;;;;;;11.00;70.23;97949.64;106813;1282;23505;-83
2023/10/18 10:58:54;;;;;;;10.10;8.70;;;;;;;11.06;69.71;97947.80;106760;1282;22774;-84
2023/10/18 11:01:57;;;;;;;13.30;9.30;;;;;;;11.09;67.61;97940.46;106795;1282;25805;-82
2023/10/18 11:04:25;;;;;;;11.30;8.50;;;;;;;11.16;71.53;97938.48;106747;1282;25280;-82
2023/10/18 11:06:57;;;;;;;11.00;8.90;;;;;;;11.36;72.63;97932.63;106790;1282;24240;-82
2023/10/18 11:09:42;;;;;;;11.00;8.60;;;;;;;11.54;69.94;97927.20;106734;1282;22572;-82
2023/10/18 11:12:12;;;;;;;10.90;8.40;;;;;;;11.62;68.20;97922.45;106726;1282;23359;-82
2023/10/18 11:14:44;;;;;;;10.70;8.00;;;;;;;11.64;66.96;97922.41;106669;1282;25243;-82
2023/10/18 11:20:19;;;;;;;11.40;8.10;;;;;;;11.74;64.87;97914.86;106884;1282;24228;-83
2023/10/18 11:22:50;;;;;;;9.40;8.00;;;;;;;11.78;64.22;97912.61;106761;1282;24176;-83
2023/10/18 11:25:30;;;;;;;8.70;7.60;;;;;;;11.83;65.75;97906.42;106797;1282;24251;-82
2023/10/18 11:28:18;;;;;;;10.30;6.30;;;;;;;11.98;66.39;97902.18;107252;1259;23929;-82
2023/10/18 11:30:51;;;;;;;9.60;7.70;;;;;;;12.18;64.57;97899.79;107091;1282;22969;-82
2023/10/18 11:33:31;;;;;;;10.00;7.80;;;;;;;12.16;62.63;97899.21;106833;1282;22616;-83
2023/10/18 11:36:04;;;;;;;10.60;7.70;;;;;;;12.21;65.66;97893.69;106834;1282;22582;-82
2023/10/18 11:38:34;;;;;;;10.30;6.50;;;;;;;12.27;60.17;97892.39;106791;1282;22576;-83
2023/10/18 11:41:11;;;;;;;8.10;6.60;;;;;;;12.28;59.91;97890.11;106799;1282;22648;-82
2023/10/18 11:43:40;;;;;;;9.00;6.40;;;;;;;12.34;62.15;97884.33;106837;1282;24433;-82
2023/10/18 11:46:08;;;;;;;8.40;7.10;;;;;;;12.52;61.98;97881.70;106759;1282;22573;-81
2023/10/18 11:48:37;;;;;;;9.00;6.70;;;;;;;12.59;60.28;97871.29;106591;1282;22553;-82
2023/10/18 11:51:08;;;;;;;9.50;7.40;;;;;;;12.71;63.33;97862.94;106845;1282;22552;-82
2023/10/18 11:53:36;;;;;;;7.80;6.60;;;;;;;12.86;60.10;97855.89;106882;1282;22541;-82
2023/10/18 11:56:11;;;;;;;7.60;6.70;;;;;;;12.86;58.32;97850.10;106812;1270;24306;-83
2023/10/18 11:58:59;;;;;;;8.70;7.40;;;;;;;12.80;55.24;97849.82;106882;1282;25421;-82
2023/10/18 12:01:33;;;;;;;8.60;7.10;;;;;;;12.66;56.04;97848.71;108179;1282;22570;-83
2023/10/18 12:04:06;;;;;;;9.40;8.00;;;;;;;12.69;55.64;97846.17;109070;1282;23898;-81
2023/10/18 12:06:36;;;;;;;9.70;7.70;;;;;;;12.69;56.17;97848.39;108542;1282;22539;-81
2023/10/18 12:11:41;;;;;;;9.50;8.50;;;;;;;12.89;54.57;97844.22;107639;1282;22622;-82
2023/10/18 12:14:09;;;;;;;11.90;9.10;;;;;;;12.81;53.80;97843.85;106848;1282;22782;-82
2023/10/18 12:16:37;;;;;;;11.50;8.90;;;;;;;12.81;55.72;97838.91;106827;1282;22892;-82
2023/10/18 12:19:06;;;;;;;11.60;9.10;;;;;;;12.95;57.13;97835.80;106824;1282;24370;-84
2023/10/18 12:21:35;;;;;;;12.10;8.90;;;;;;;13.14;56.76;97829.30;106852;1282;23224;-81
2023/10/18 12:24:07;;;;;;;10.40;9.00;;;;;;;13.40;58.55;97824.16;106787;1282;22551;-82
2023/10/18 12:26:40;;;;;;;9.50;8.40;;;;;;;13.60;55.73;97817.00;106803;1282;22607;-81
2023/10/18 12:29:15;;;;;;;13.40;8.60;;;;;;;13.66;56.43;97816.28;106806;1282;22639;-81
2023/10/18 12:31:52;;;;;;;13.30;9.10;;;;;;;13.73;54.06;97811.27;106835;1282;22843;-81
2023/10/18 12:34:28;;;;;;;12.80;8.90;;;;;;;13.92;55.97;97809.79;106919;1282;24358;-81
2023/10/18 12:36:58;;;;;;;13.30;9.80;;;;;;;13.99;52.39;97809.13;106773;1282;25425;-81
2023/10/18 12:39:34;;;;;;;11.10;9.70;;;;;;;13.84;53.12;97804.96;106729;1282;24357;-81
2023/10/18 12:42:05;;;;;;;11.90;9.50;;;;;;;13.84;54.01;97799.52;106888;1282;25423;-81